Luke Air Force Base Glendale US
ICAO: KLUF
IATA: LUF
Category: Large
Scheduled Services: No

Elevation: 1085 ft
TransAlt. 18000 ft.

Airport Communications:
APP/DEP:120.7
ATIS:134.925
CLNC DEL:126.25
GND:133.175
PMSV METRO:26.74
COMD POST:34.94
PTD:37.22
TWR:119.1

KLUF Zoom In..

Runways:

(A) RW 03L length 10012 ft width 150 ft
---- / hdg 30

(B) RW 03R length 9904 ft width 150 ft
ILS 108.70 / hdg 30

(C) RW 21L length 9904 ft width 150 ft
ILS 110.90 / hdg 210

(D) RW 21R length 10012 ft width 150 ft
---- / hdg 210

Location; KLUF
Day. 23 / Time. 14.58 Zulu
* Altimeter: 30.15
* Temperature: 02° c. 35.6°f.
* Wind from: 350° Speed 03 kn.
Dewpoint: -05° c.
Visibility: 10 Statute Miles.
Clouds: Clear (automated report).

KLUF 231458Z 35003KT 10SM CLR 02/M05 A3015 RMK AO2A SLP213 60000 T00171046 52011 $


Wind From 350°
Speed 03 kn.

YouTube Music Video
 
jpsmedia.com for Web Design  worldairports.se 2018   terms of use